^^

..:: Storico WU ::..




Lo storico viene creato da WUnderground con i dati che la stazione Meteomincio invia al loro server. L' aggiornamento viene fatto ogni 5 minuti circa, tuttavia possono esserci intervalli pił ampi a causa di errori, interruzioni di servizio o problemi nell' invio tramite FTP.


Storico stazione MeteoMincio
Giorno Sommario per Dicembre 23, 2022 Unità:  Inglese    Metrico   Entrambi
Giorno Settimana Mese Anno
  Max: Min: Media:
Temperatura: 48.2 °F 39.2 °F 44.8 °F
Dew Point: 46.4 °F 37.4 °F 43.3 °F
Umidità: 97% 91% 95%
Velocità vento: 6.2mph 0mph 1.7mph
Raffica: 6.8mph - -
Direzione- - SSW
Pressione: 30 in 30 in -
Precipitazioni: 0 in    
 
 
Tabulato Dati per Dicembre 23, 2022
Ora Temperatura Dew Point Pressione Direzione Velocità vento Raffica Umidità Intensità pioggia (oraria) Info solare Situazione
00:04 44.6 °F 42.8 °F 30 in NW 1.9 mph 3.1 mph 96% 0 in 0.00 W/m2 unknown
00:09 44.6 °F 42.8 °F 30 in NE 2.5 mph 3.7 mph 96% 0 in 0.00 W/m2 unknown
00:14 44.6 °F 42.8 °F 30 in NE 3.1 mph 3.7 mph 96% 0 in 0.00 W/m2 unknown
00:19 44.6 °F 42.8 °F 30 in NE 3.7 mph 5 mph 96% 0 in 0.00 W/m2 unknown
00:24 44.6 °F 42.8 °F 30 in NE 3.1 mph 5 mph 96% 0 in 0.00 W/m2 unknown
00:29 44.6 °F 42.8 °F 30 in NE 3.1 mph 3.7 mph 96% 0 in 0.00 W/m2 unknown
00:34 44.6 °F 42.8 °F 30 in NE 2.5 mph 3.7 mph 96% 0 in 0.00 W/m2 unknown
00:39 44.6 °F 42.8 °F 30 in NE 2.5 mph 3.7 mph 96% 0 in 0.00 W/m2 unknown
00:44 44.6 °F 42.8 °F 30 in NE 1.2 mph 3.1 mph 96% 0 in 0.00 W/m2 unknown
00:49 44.6 °F 42.8 °F 30 in NE 1.9 mph 3.1 mph 96% 0 in 0.00 W/m2 unknown
00:54 44.6 °F 42.8 °F 30 in East 2.5 mph 3.7 mph 96% 0 in 0.00 W/m2 unknown
00:59 44.6 °F 42.8 °F 30 in East 1.2 mph 3.1 mph 96% 0 in 0.00 W/m2 unknown
01:04 44.6 °F 42.8 °F 30 in Calm   1.2 mph 96% 0 in 0.00 W/m2 unknown
01:09 44.6 °F 42.8 °F 30 in ENE 1.9 mph 3.1 mph 96% 0 in 0.00 W/m2 unknown
01:14 44.6 °F 42.8 °F 30 in ENE 1.9 mph 3.7 mph 96% 0 in 0.00 W/m2 unknown
01:19 44.6 °F 42.8 °F 30 in ENE 1.2 mph 3.1 mph 96% 0 in 0.00 W/m2 unknown
01:24 44.6 °F 42.8 °F 30 in ENE 1.2 mph 2.5 mph 96% 0 in 0.00 W/m2 unknown
01:29 44.6 °F 42.8 °F 30 in Calm   1.2 mph 96% 0 in 0.00 W/m2 unknown
01:34 44.6 °F 42.8 °F 30 in ENE 0.6 mph 1.2 mph 96% 0 in 0.00 W/m2 unknown
01:39 44.6 °F 42.8 °F 30 in ENE 1.2 mph 1.2 mph 96% 0 in 0.00 W/m2 unknown
01:44 44.6 °F 42.8 °F 30 in ENE 1.9 mph 2.5 mph 96% 0 in 0.00 W/m2 unknown
01:49 44.6 °F 42.8 °F 30 in ENE 3.1 mph 3.7 mph 96% 0 in 0.00 W/m2 unknown
01:54 44.6 °F 42.8 °F 30 in ENE 3.1 mph 3.7 mph 96% 0 in 0.00 W/m2 unknown
01:59 42.8 °F 42.8 °F 30 in ENE 2.5 mph 3.7 mph 96% 0 in 0.00 W/m2 unknown
02:04 42.8 °F 42.8 °F 30 in ENE 1.2 mph 3.1 mph 96% 0 in 0.00 W/m2 unknown
02:09 42.8 °F 42.8 °F 30 in NE 2.5 mph 3.7 mph 96% 0 in 0.00 W/m2 unknown
02:14 42.8 °F 42.8 °F 30 in NE 3.1 mph 3.7 mph 96% 0 in 0.00 W/m2 unknown
02:19 42.8 °F 42.8 °F 30 in NE 1.9 mph 3.1 mph 95% 0 in 0.00 W/m2 unknown
02:24 42.8 °F 42.8 °F 30 in NE 2.5 mph 3.7 mph 95% 0 in 0.00 W/m2 unknown
02:29 42.8 °F 42.8 °F 30 in NE 1.2 mph 3.1 mph 96% 0 in 0.00 W/m2 unknown
02:34 42.8 °F 42.8 °F 30 in ENE 1.9 mph 2.5 mph 96% 0 in 0.00 W/m2 unknown
02:39 42.8 °F 42.8 °F 30 in ENE 1.9 mph 3.7 mph 96% 0 in 0.00 W/m2 unknown
02:44 42.8 °F 42.8 °F 30 in ENE 1.9 mph 3.7 mph 96% 0 in 0.00 W/m2 unknown
02:49 42.8 °F 42.8 °F 30 in ENE 1.9 mph 3.1 mph 96% 0 in 0.00 W/m2 unknown
02:54 42.8 °F 42.8 °F 30 in ENE 1.9 mph 2.5 mph 96% 0 in 0.00 W/m2 unknown
02:59 42.8 °F 42.8 °F 30 in ENE 1.2 mph 2.5 mph 96% 0 in 0.00 W/m2 unknown
03:04 42.8 °F 42.8 °F 30 in ENE 1.2 mph 2.5 mph 96% 0 in 0.00 W/m2 unknown
03:09 42.8 °F 42.8 °F 30 in Calm   1.2 mph 96% 0 in 0.00 W/m2 unknown
03:14 42.8 °F 42.8 °F 30 in NE 1.9 mph 2.5 mph 96% 0 in 0.00 W/m2 unknown
03:19 42.8 °F 42.8 °F 30 in NNE 1.9 mph 2.5 mph 96% 0 in 0.00 W/m2 unknown
03:24 42.8 °F 42.8 °F 30 in North 1.2 mph 2.5 mph 96% 0 in 0.00 W/m2 unknown
03:29 42.8 °F 42.8 °F 30 in North 1.2 mph 2.5 mph 96% 0 in 0.00 W/m2 unknown
03:34 42.8 °F 42.8 °F 30 in North 1.2 mph 1.9 mph 96% 0 in 0.00 W/m2 unknown
03:39 42.8 °F 42.8 °F 30 in North 0.6 mph 1.2 mph 96% 0 in 0.00 W/m2 unknown
03:44 42.8 °F 42.8 °F 30 in North 1.2 mph 1.2 mph 96% 0 in 0.00 W/m2 unknown
03:49 42.8 °F 42.8 °F 30 in North 1.9 mph 2.5 mph 96% 0 in 0.00 W/m2 unknown
03:54 42.8 °F 42.8 °F 30 in North 1.9 mph 2.5 mph 96% 0 in 0.00 W/m2 unknown
03:59 42.8 °F 42.8 °F 30 in North 1.2 mph 2.5 mph 96% 0 in 0.00 W/m2 unknown
04:04 42.8 °F 42.8 °F 30 in Calm   1.9 mph 96% 0 in 0.00 W/m2 unknown
04:09 42.8 °F 42.8 °F 30 in North 0.6 mph 1.9 mph 96% 0 in 0.00 W/m2 unknown
04:14 42.8 °F 42.8 °F 30 in North 0.6 mph 2.5 mph 96% 0 in 0.00 W/m2 unknown
04:19 42.8 °F 42.8 °F 30 in Calm   1.9 mph 96% 0 in 0.00 W/m2 unknown
04:24 42.8 °F 42.8 °F 30 in Calm     96% 0 in 0.00 W/m2 unknown
04:29 42.8 °F 42.8 °F 30 in Calm     96% 0 in 0.00 W/m2 unknown
04:34 42.8 °F 42.8 °F 30 in Calm     96% 0 in 0.00 W/m2 unknown
04:39 42.8 °F 42.8 °F 30 in Calm     96% 0 in 0.00 W/m2 unknown
04:44 42.8 °F 42.8 °F 30 in North 0.6 mph 1.2 mph 96% 0 in 0.00 W/m2 unknown
04:49 42.8 °F 42.8 °F 30 in North 1.2 mph 2.5 mph 96% 0 in 0.00 W/m2 unknown
04:54 42.8 °F 42.8 °F 30 in North 1.2 mph 2.5 mph 96% 0 in 0.00 W/m2 unknown
04:59 42.8 °F 41 °F 30 in North 1.2 mph 1.9 mph 96% 0 in 0.00 W/m2 unknown
05:04 42.8 °F 41 °F 30 in Calm   1.2 mph 96% 0 in 0.00 W/m2 unknown
05:09 42.8 °F 41 °F 30 in Calm     96% 0 in 0.00 W/m2 unknown
05:14 42.8 °F 41 °F 30 in Calm   1.2 mph 96% 0 in 0.00 W/m2 unknown
05:19 42.8 °F 41 °F 30 in Calm   1.2 mph 96% 0 in 0.00 W/m2 unknown
05:24 41 °F 41 °F 30 in Calm   1.2 mph 96% 0 in 0.00 W/m2 unknown
05:29 41 °F 41 °F 30 in Calm     96% 0 in 0.00 W/m2 unknown
05:34 41 °F 39.2 °F 30 in Calm     96% 0 in 0.00 W/m2 unknown
05:39 41 °F 39.2 °F 30 in North 1.2 mph 2.5 mph 96% 0 in 0.00 W/m2 unknown
05:44 41 °F 39.2 °F 30 in Calm   1.9 mph 95% 0 in 0.00 W/m2 unknown
05:49 41 °F 39.2 °F 30 in North 1.2 mph 1.2 mph 96% 0 in 0.00 W/m2 unknown
05:54 41 °F 39.2 °F 30 in North 1.2 mph 1.2 mph 96% 0 in 0.00 W/m2 unknown
05:59 41 °F 39.2 °F 30 in North 1.2 mph 1.2 mph 96% 0 in 0.00 W/m2 unknown
06:04 41 °F 39.2 °F 30 in Calm   1.2 mph 95% 0 in 0.00 W/m2 unknown
06:09 39.2 °F 39.2 °F 30 in Calm     96% 0 in 0.00 W/m2 unknown
06:14 39.2 °F 39.2 °F 30 in Calm     96% 0 in 0.00 W/m2 unknown
06:19 39.2 °F 39.2 °F 30 in North 0.6 mph 1.2 mph 96% 0 in 0.00 W/m2 unknown
06:24 39.2 °F 39.2 °F 30 in North 1.2 mph 2.5 mph 95% 0 in 0.00 W/m2 unknown
06:29 39.2 °F 37.4 °F 30 in North 1.2 mph 2.5 mph 95% 0 in 0.00 W/m2 unknown
06:34 39.2 °F 37.4 °F 30 in Calm   1.9 mph 95% 0 in 0.00 W/m2 unknown
06:39 39.2 °F 39.2 °F 30 in North 0.6 mph 1.2 mph 96% 0 in 0.00 W/m2 unknown
06:44 39.2 °F 37.4 °F 30 in Calm   1.2 mph 96% 0 in 0.00 W/m2 unknown
06:49 39.2 °F 37.4 °F 30 in Calm     96% 0 in 0.00 W/m2 unknown
06:54 39.2 °F 37.4 °F 30 in Calm     95% 0 in 0.00 W/m2 unknown
06:59 39.2 °F 37.4 °F 30 in Calm     96% 0 in 0.00 W/m2 unknown
07:04 39.2 °F 37.4 °F 30 in Calm     96% 0 in 0.00 W/m2 unknown
07:09 39.2 °F 37.4 °F 30 in Calm     95% 0 in 0.00 W/m2 unknown
07:14 39.2 °F 37.4 °F 30 in Calm     95% 0 in 0.00 W/m2 unknown
07:19 39.2 °F 37.4 °F 30 in Calm     95% 0 in 0.00 W/m2 unknown
07:24 39.2 °F 37.4 °F 30 in Calm     96% 0 in 0.00 W/m2 unknown
07:29 39.2 °F 37.4 °F 30 in Calm     96% 0 in 0.00 W/m2 unknown
07:34 39.2 °F 37.4 °F 30 in Calm     96% 0 in 0.00 W/m2 unknown
07:39 39.2 °F 37.4 °F 30 in Calm     96% 0 in 0.00 W/m2 unknown
07:44 39.2 °F 37.4 °F 30 in Calm     96% 0 in 0.00 W/m2 unknown
07:49 39.2 °F 39.2 °F 30 in Calm     96% 0 in 0.00 W/m2 unknown
07:54 39.2 °F 39.2 °F 30 in Calm     96% 0 in 0.00 W/m2 unknown
07:59 39.2 °F 39.2 °F 30 in Calm     96% 0 in 0.00 W/m2 unknown
08:04 39.2 °F 39.2 °F 30 in Calm     96% 0 in 0.00 W/m2 unknown
08:09 39.2 °F 39.2 °F 30 in Calm     96% 0 in 5.00 W/m2 unknown
08:14 39.2 °F 39.2 °F 30 in Calm     96% 0 in 9.00 W/m2 unknown
08:19 41 °F 39.2 °F 30 in Calm     96% 0 in 14.00 W/m2 unknown
08:24 41 °F 39.2 °F 30 in Calm     96% 0 in 14.00 W/m2 unknown
08:29 41 °F 39.2 °F 30 in Calm   1.2 mph 96% 0 in 18.00 W/m2 unknown
08:34 41 °F 39.2 °F 30 in North 0.6 mph 1.2 mph 96% 0 in 18.00 W/m2 unknown
08:39 41 °F 39.2 °F 30 in Calm   1.2 mph 96% 0 in 18.00 W/m2 unknown
08:44 41 °F 39.2 °F 30 in Calm     96% 0 in 18.00 W/m2 unknown
08:49 41 °F 39.2 °F 30 in Calm     96% 0 in 19.00 W/m2 unknown
08:54 41 °F 41 °F 30 in Calm   1.2 mph 96% 0 in 23.00 W/m2 unknown
08:59 41 °F 41 °F 30 in West 1.9 mph 3.7 mph 96% 0 in 30.00 W/m2 unknown
09:04 41 °F 41 °F 30 in West 1.9 mph 3.7 mph 96% 0 in 26.00 W/m2 unknown
09:09 42.8 °F 41 °F 30 in West 1.2 mph 2.5 mph 96% 0 in 30.00 W/m2 unknown
09:14 42.8 °F 41 °F 30 in Calm   1.9 mph 96% 0 in 35.00 W/m2 unknown
09:19 42.8 °F 41 °F 30 in Calm     96% 0 in 40.00 W/m2 unknown
09:24 42.8 °F 41 °F 30 in West 1.9 mph 2.5 mph 96% 0 in 40.00 W/m2 unknown
09:29 42.8 °F 42.8 °F 30 in West 1.9 mph 2.5 mph 97% 0 in 40.00 W/m2 unknown
09:34 42.8 °F 42.8 °F 30 in West 1.2 mph 2.5 mph 97% 0 in 47.00 W/m2 unknown
09:39 42.8 °F 42.8 °F 30 in West 1.2 mph 1.9 mph 96% 0 in 60.00 W/m2 unknown
09:44 42.8 °F 42.8 °F 30 in West 0.6 mph 1.2 mph 96% 0 in 56.00 W/m2 unknown
09:49 42.8 °F 42.8 °F 30 in Calm   1.2 mph 97% 0 in 54.00 W/m2 unknown
09:54 42.8 °F 42.8 °F 30 in West 1.9 mph 3.1 mph 97% 0 in 62.00 W/m2 unknown
09:59 44.6 °F 42.8 °F 30 in WSW 1.9 mph 3.7 mph 97% 0 in 69.00 W/m2 unknown
10:04 44.6 °F 42.8 °F 30 in SW 3.1 mph 3.7 mph 97% 0 in 69.00 W/m2 unknown
10:09 44.6 °F 42.8 °F 30 in SW 3.1 mph 3.7 mph 97% 0 in 72.00 W/m2 unknown
10:14 44.6 °F 44.6 °F 30 in SW 3.1 mph 3.7 mph 97% 0 in 79.00 W/m2 unknown
10:19 44.6 °F 44.6 °F 30 in SW 4.3 mph 6.2 mph 97% 0 in 83.00 W/m2 unknown
10:24 44.6 °F 44.6 °F 30 in SW 5 mph 6.2 mph 97% 0 in 98.00 W/m2 unknown
10:29 44.6 °F 44.6 °F 30 in SW 2.5 mph 3.7 mph 97% 0 in 97.00 W/m2 unknown
10:34 44.6 °F 44.6 °F 30 in SW 2.5 mph 3.7 mph 97% 0 in 81.00 W/m2 unknown
10:39 46.4 °F 44.6 °F 30 in WSW 3.7 mph 3.7 mph 97% 0 in 90.00 W/m2 unknown
10:44 46.4 °F 44.6 °F 30 in WSW 4.3 mph 6.2 mph 96% 0 in 90.00 W/m2 unknown
10:49 46.4 °F 44.6 °F 30 in SW 5 mph 6.2 mph 96% 0 in 111.00 W/m2 unknown
10:54 46.4 °F 44.6 °F 30 in WSW 4.3 mph 6.2 mph 96% 0 in 111.00 W/m2 unknown
10:59 46.4 °F 44.6 °F 30 in WSW 5 mph 6.2 mph 96% 0 in 105.00 W/m2 unknown
11:04 46.4 °F 44.6 °F 30 in West 5.6 mph 6.8 mph 96% 0 in 98.00 W/m2 unknown
11:09 46.4 °F 44.6 °F 30 in West 5 mph 6.8 mph 96% 0 in 91.00 W/m2 unknown
11:14 46.4 °F 44.6 °F 30 in West 4.3 mph 6.2 mph 96% 0 in 102.00 W/m2 unknown
11:19 46.4 °F 44.6 °F 30 in WSW 2.5 mph 5 mph 96% 0 in 120.00 W/m2 unknown
11:24 46.4 °F 44.6 °F 30 in West 4.3 mph 5 mph 95% 0 in 128.00 W/m2 unknown
11:29 46.4 °F 44.6 °F 30 in WNW 2.5 mph 3.7 mph 95% 0 in 127.00 W/m2 unknown
11:34 46.4 °F 44.6 °F 30 in WNW 3.1 mph 3.7 mph 95% 0 in 139.00 W/m2 unknown
11:39 46.4 °F 44.6 °F 30 in WSW 3.1 mph 3.7 mph 95% 0 in 135.00 W/m2 unknown
11:44 46.4 °F 44.6 °F 30 in WSW 3.1 mph 3.7 mph 94% 0 in 135.00 W/m2 unknown
11:49 46.4 °F 44.6 °F 30 in West 2.5 mph 3.7 mph 94% 0 in 146.00 W/m2 unknown
11:54 46.4 °F 44.6 °F 30 in West 2.5 mph 3.7 mph 94% 0 in 146.00 W/m2 unknown
11:59 46.4 °F 46.4 °F 30 in West 3.1 mph 6.2 mph 94% 0 in 132.00 W/m2 unknown
12:04 46.4 °F 46.4 °F 30 in West 4.3 mph 6.2 mph 94% 0 in 132.00 W/m2 unknown
12:09 48.2 °F 44.6 °F 30 in WSW 3.7 mph 6.2 mph 93% 0 in 113.00 W/m2 unknown
12:14 48.2 °F 44.6 °F 30 in WSW 4.3 mph 6.2 mph 93% 0 in 116.00 W/m2 unknown
12:19 48.2 °F 44.6 °F 30 in WSW 5 mph 6.2 mph 93% 0 in 105.00 W/m2 unknown
12:24 46.4 °F 44.6 °F 30 in WSW 5 mph 6.2 mph 93% 0 in 116.00 W/m2 unknown
12:29 46.4 °F 44.6 °F 30 in WSW 5 mph 6.2 mph 93% 0 in 125.00 W/m2 unknown
12:34 46.4 °F 44.6 °F 30 in SW 4.3 mph 6.2 mph 93% 0 in 134.00 W/m2 unknown
12:39 46.4 °F 46.4 °F 30 in SSW 3.7 mph 5 mph 94% 0 in 137.00 W/m2 unknown
12:44 46.4 °F 44.6 °F 30 in WSW 1.9 mph 3.7 mph 93% 0 in 146.00 W/m2 unknown
12:49 46.4 °F 44.6 °F 30 in SW 2.5 mph 3.7 mph 93% 0 in 134.00 W/m2 unknown
12:54 46.4 °F 44.6 °F 30 in West 2.5 mph 3.7 mph 93% 0 in 148.00 W/m2 unknown
12:59 46.4 °F 44.6 °F 30 in SSW 2.5 mph 3.7 mph 93% 0 in 199.00 W/m2 unknown
13:04 48.2 °F 44.6 °F 30 in WSW 3.7 mph 5 mph 93% 0 in 199.00 W/m2 unknown
13:09 48.2 °F 44.6 °F 30 in SSW 3.7 mph 5 mph 93% 0 in 153.00 W/m2 unknown
13:14 48.2 °F 46.4 °F 30 in SW 3.7 mph 5 mph 93% 0 in 181.00 W/m2 unknown
13:19 48.2 °F 46.4 °F 30 in SW 4.3 mph 6.2 mph 93% 0 in 230.00 W/m2 unknown
13:24 48.2 °F 46.4 °F 30 in SSW 5 mph 6.2 mph 93% 0 in 260.00 W/m2 unknown
13:29 48.2 °F 46.4 °F 30 in SSW 5.6 mph 6.8 mph 93% 0 in 295.00 W/m2 unknown
13:34 48.2 °F 46.4 °F 30 in SW 6.2 mph 6.8 mph 93% 0 in 295.00 W/m2 unknown
13:39 48.2 °F 46.4 °F 30 in SW 3.7 mph 6.2 mph 93% 0 in 250.00 W/m2 unknown
13:44 48.2 °F 46.4 °F 30 in SSW 3.1 mph 5 mph 93% 0 in 276.00 W/m2 unknown
13:49 48.2 °F 46.4 °F 30 in SW 2.5 mph 5 mph 93% 0 in 199.00 W/m2 unknown
13:54 48.2 °F 46.4 °F 30 in SW 3.1 mph 3.7 mph 93% 0 in 234.00 W/m2 unknown
13:59 48.2 °F 46.4 °F 30 in WSW 3.7 mph 3.7 mph 93% 0 in 250.00 W/m2 unknown
14:04 48.2 °F 46.4 °F 30 in West 4.3 mph 5 mph 93% 0 in 271.00 W/m2 unknown
14:09 48.2 °F 46.4 °F 30 in West 3.7 mph 5 mph 92% 0 in 186.00 W/m2 unknown
14:14 48.2 °F 46.4 °F 30 in West 5 mph 6.2 mph 92% 0 in 193.00 W/m2 unknown
14:19 48.2 °F 46.4 °F 30 in WNW 4.3 mph 6.2 mph 92% 0 in 171.00 W/m2 unknown
14:24 48.2 °F 46.4 °F 30 in WNW 3.7 mph 6.2 mph 92% 0 in 151.00 W/m2 unknown
14:29 48.2 °F 46.4 °F 30 in WNW 1.9 mph 3.7 mph 92% 0 in 151.00 W/m2 unknown
14:34 48.2 °F 46.4 °F 30 in West 2.5 mph 3.7 mph 92% 0 in 155.00 W/m2 unknown
14:39 48.2 °F 46.4 °F 30 in WSW 2.5 mph 3.7 mph 92% 0 in 125.00 W/m2 unknown
14:44 48.2 °F 46.4 °F 30 in NW 1.9 mph 3.7 mph 92% 0 in 125.00 W/m2 unknown
14:49 48.2 °F 44.6 °F 30 in West 2.5 mph 3.7 mph 91% 0 in 114.00 W/m2 unknown
14:54 48.2 °F 44.6 °F 30 in West 1.9 mph 3.7 mph 92% 0 in 125.00 W/m2 unknown
14:59 48.2 °F 44.6 °F 30 in West 1.2 mph 3.1 mph 92% 0 in 116.00 W/m2 unknown
15:04 48.2 °F 46.4 °F 30 in WSW 2.5 mph 3.7 mph 92% 0 in 100.00 W/m2 unknown
15:09 48.2 °F 46.4 °F 30 in SW 2.5 mph 3.7 mph 92% 0 in 100.00 W/m2 unknown
15:14 48.2 °F 44.6 °F 30 in SSW 2.5 mph 3.7 mph 92% 0 in 111.00 W/m2 unknown
15:19 48.2 °F 46.4 °F 30 in SSW 2.5 mph 3.7 mph 92% 0 in 128.00 W/m2 unknown
15:24 48.2 °F 46.4 °F 30 in SSW 3.7 mph 5 mph 92% 0 in 121.00 W/m2 unknown
15:29 48.2 °F 46.4 °F 30 in SW 2.5 mph 5 mph 92% 0 in 116.00 W/m2 unknown
15:34 48.2 °F 46.4 °F 30 in SSW 3.7 mph 5 mph 92% 0 in 81.00 W/m2 unknown
15:39 48.2 °F 46.4 °F 30 in SSW 3.1 mph 5 mph 92% 0 in 67.00 W/m2 unknown
15:44 48.2 °F 46.4 °F 30 in SW 3.1 mph 3.7 mph 92% 0 in 58.00 W/m2 unknown
15:49 48.2 °F 44.6 °F 30 in WSW 1.9 mph 3.7 mph 92% 0 in 58.00 W/m2 unknown
15:54 48.2 °F 44.6 °F 30 in SSW 2.5 mph 3.7 mph 92% 0 in 42.00 W/m2 unknown
15:59 48.2 °F 44.6 °F 30 in SSW 1.9 mph 3.7 mph 92% 0 in 35.00 W/m2 unknown
16:04 48.2 °F 44.6 °F 30 in SSW 3.1 mph 3.7 mph 92% 0 in 21.00 W/m2 unknown
16:09 48.2 °F 44.6 °F 30 in SW 2.5 mph 3.7 mph 92% 0 in 12.00 W/m2 unknown
16:14 48.2 °F 44.6 °F 30 in SSW 3.1 mph 3.7 mph 92% 0 in 12.00 W/m2 unknown
16:19 48.2 °F 44.6 °F 30 in SSW 2.5 mph 3.7 mph 92% 0 in 12.00 W/m2 unknown
16:24 46.4 °F 44.6 °F 30 in SW 3.1 mph 3.7 mph 92% 0 in 9.00 W/m2 unknown
16:29 46.4 °F 44.6 °F 30 in SW 2.5 mph 3.7 mph 92% 0 in 5.00 W/m2 unknown
16:34 46.4 °F 44.6 °F 30 in SW 1.9 mph 3.7 mph 93% 0 in 0.00 W/m2 unknown
16:39 46.4 °F 44.6 °F 30 in SW 2.5 mph 3.7 mph 93% 0 in 0.00 W/m2 unknown
16:44 46.4 °F 44.6 °F 30 in SW 2.5 mph 3.7 mph 93% 0 in 0.00 W/m2 unknown
16:49 46.4 °F 44.6 °F 30 in SW 2.5 mph 3.7 mph 93% 0 in 0.00 W/m2 unknown
16:54 46.4 °F 44.6 °F 30 in SSW 2.5 mph 3.7 mph 93% 0 in 0.00 W/m2 unknown
16:59 46.4 °F 44.6 °F 30 in SW 2.5 mph 3.7 mph 93% 0 in 0.00 W/m2 unknown
17:04 46.4 °F 44.6 °F 30 in SW 1.2 mph 3.7 mph 93% 0 in 0.00 W/m2 unknown
17:09 46.4 °F 44.6 °F 30 in SW 0.6 mph 3.1 mph 93% 0 in 0.00 W/m2 unknown
17:14 46.4 °F 44.6 °F 30 in SW 1.2 mph 2.5 mph 93% 0 in 0.00 W/m2 unknown
17:19 46.4 °F 44.6 °F 30 in SW 1.2 mph 2.5 mph 93% 0 in 0.00 W/m2 unknown
17:24 46.4 °F 44.6 °F 30 in SW 0.6 mph 1.9 mph 93% 0 in 0.00 W/m2 unknown
17:29 46.4 °F 44.6 °F 30 in Calm   1.2 mph 93% 0 in 0.00 W/m2 unknown
17:34 46.4 °F 44.6 °F 30 in Calm     93% 0 in 0.00 W/m2 unknown
17:39 46.4 °F 44.6 °F 30 in Calm     93% 0 in 0.00 W/m2 unknown
17:44 46.4 °F 44.6 °F 30 in SW 0.6 mph 1.2 mph 93% 0 in 0.00 W/m2 unknown
17:49 46.4 °F 44.6 °F 30 in SW 0.6 mph 1.9 mph 93% 0 in 0.00 W/m2 unknown
17:54 46.4 °F 44.6 °F 30 in SW 1.2 mph 2.5 mph 93% 0 in 0.00 W/m2 unknown
17:59 46.4 °F 44.6 °F 30 in WNW 2.5 mph 3.7 mph 93% 0 in 0.00 W/m2 unknown
18:04 46.4 °F 44.6 °F 30 in WNW 1.9 mph 3.7 mph 93% 0 in 0.00 W/m2 unknown
18:09 46.4 °F 44.6 °F 30 in WNW 3.1 mph 3.7 mph 93% 0 in 0.00 W/m2 unknown
18:14 46.4 °F 44.6 °F 30 in WNW 1.9 mph 3.7 mph 93% 0 in 0.00 W/m2 unknown
18:19 46.4 °F 44.6 °F 30 in WNW 1.9 mph 3.7 mph 93% 0 in 0.00 W/m2 unknown
18:24 46.4 °F 44.6 °F 30 in Calm   3.1 mph 93% 0 in 0.00 W/m2 unknown
18:29 46.4 °F 44.6 °F 30 in Calm     93% 0 in 0.00 W/m2 unknown
18:34 46.4 °F 44.6 °F 30 in Calm     93% 0 in 0.00 W/m2 unknown
18:39 46.4 °F 44.6 °F 30 in Calm     93% 0 in 0.00 W/m2 unknown
18:44 46.4 °F 44.6 °F 30 in Calm     93% 0 in 0.00 W/m2 unknown
18:49 46.4 °F 44.6 °F 30 in Calm     93% 0 in 0.00 W/m2 unknown
18:54 46.4 °F 44.6 °F 30 in Calm   1.9 mph 93% 0 in 0.00 W/m2 unknown
18:59 46.4 °F 44.6 °F 30 in West 1.9 mph 2.5 mph 93% 0 in 0.00 W/m2 unknown
19:04 46.4 °F 44.6 °F 30 in West 1.9 mph 2.5 mph 93% 0 in 0.00 W/m2 unknown
19:09 46.4 °F 44.6 °F 30 in West 1.2 mph 2.5 mph 93% 0 in 0.00 W/m2 unknown
19:14 46.4 °F 44.6 °F 30 in Calm   1.9 mph 93% 0 in 0.00 W/m2 unknown
19:19 46.4 °F 44.6 °F 30 in Calm     93% 0 in 0.00 W/m2 unknown
19:24 46.4 °F 44.6 °F 30 in Calm   1.2 mph 93% 0 in 0.00 W/m2 unknown
19:29 46.4 °F 44.6 °F 30 in Calm   1.2 mph 93% 0 in 0.00 W/m2 unknown
19:34 46.4 °F 44.6 °F 30 in Calm   1.2 mph 93% 0 in 0.00 W/m2 unknown
19:39 46.4 °F 44.6 °F 30 in Calm     93% 0 in 0.00 W/m2 unknown
19:44 46.4 °F 44.6 °F 30 in Calm     93% 0 in 0.00 W/m2 unknown
19:49 46.4 °F 44.6 °F 30 in Calm     93% 0 in 0.00 W/m2 unknown
19:54 46.4 °F 44.6 °F 30 in Calm     93% 0 in 0.00 W/m2 unknown
19:59 46.4 °F 44.6 °F 30 in West 0.6 mph 1.2 mph 93% 0 in 0.00 W/m2 unknown
20:04 46.4 °F 44.6 °F 30 in West 1.2 mph 1.2 mph 93% 0 in 0.00 W/m2 unknown
20:09 46.4 °F 44.6 °F 30 in West 0.6 mph 1.2 mph 93% 0 in 0.00 W/m2 unknown
20:14 46.4 °F 44.6 °F 30 in SW 1.9 mph 2.5 mph 93% 0 in 0.00 W/m2 unknown
20:19 46.4 °F 44.6 °F 30 in SSE 1.9 mph 3.7 mph 93% 0 in 0.00 W/m2 unknown
20:24 46.4 °F 44.6 °F 30 in SSE 1.9 mph 3.7 mph 93% 0 in 0.00 W/m2 unknown
20:29 46.4 °F 44.6 °F 30 in SSE 0.6 mph 1.9 mph 94% 0 in 0.00 W/m2 unknown
20:34 46.4 °F 44.6 °F 30 in ESE 1.2 mph 2.5 mph 94% 0 in 0.00 W/m2 unknown
20:39 46.4 °F 44.6 °F 30 in ENE 1.2 mph 2.5 mph 94% 0 in 0.00 W/m2 unknown
20:44 46.4 °F 44.6 °F 30 in ENE 1.2 mph 2.5 mph 94% 0 in 0.00 W/m2 unknown
20:49 46.4 °F 44.6 °F 30 in North 3.1 mph 3.7 mph 94% 0 in 0.00 W/m2 unknown
20:54 46.4 °F 44.6 °F 30 in NNW 1.9 mph 3.7 mph 94% 0 in 0.00 W/m2 unknown
20:59 46.4 °F 44.6 °F 30 in NNW 1.2 mph 2.5 mph 94% 0 in 0.00 W/m2 unknown
21:04 46.4 °F 44.6 °F 30 in NNW 1.2 mph 2.5 mph 94% 0 in 0.00 W/m2 unknown
21:09 46.4 °F 44.6 °F 30 in NNW 0.6 mph 2.5 mph 94% 0 in 0.00 W/m2 unknown
21:14 46.4 °F 44.6 °F 30 in NNW 0.6 mph 1.2 mph 94% 0 in 0.00 W/m2 unknown
21:19 46.4 °F 44.6 °F 30 in Calm   1.2 mph 94% 0 in 0.00 W/m2 unknown
21:24 46.4 °F 44.6 °F 30 in NNW 0.6 mph 1.2 mph 94% 0 in 0.00 W/m2 unknown
21:29 46.4 °F 44.6 °F 30 in NNW 1.2 mph 1.2 mph 94% 0 in 0.00 W/m2 unknown
21:34 46.4 °F 44.6 °F 30 in Calm     94% 0 in 0.00 W/m2 unknown
21:39 46.4 °F 44.6 °F 30 in North 1.2 mph 2.5 mph 94% 0 in 0.00 W/m2 unknown
21:44 46.4 °F 44.6 °F 30 in North 1.2 mph 2.5 mph 94% 0 in 0.00 W/m2 unknown
21:49 46.4 °F 44.6 °F 30 in Calm   1.9 mph 94% 0 in 0.00 W/m2 unknown
21:54 46.4 °F 44.6 °F 30 in Calm     94% 0 in 0.00 W/m2 unknown
21:59 46.4 °F 44.6 °F 30 in North 0.6 mph 1.9 mph 94% 0 in 0.00 W/m2 unknown
22:04 46.4 °F 44.6 °F 30 in North 1.2 mph 2.5 mph 94% 0 in 0.00 W/m2 unknown
22:09 46.4 °F 44.6 °F 30 in NNW 1.2 mph 2.5 mph 94% 0 in 0.00 W/m2 unknown
22:14 46.4 °F 44.6 °F 30 in WNW 1.9 mph 3.7 mph 94% 0 in 0.00 W/m2 unknown
22:19 46.4 °F 44.6 °F 30 in WNW 1.2 mph 3.7 mph 94% 0 in 0.00 W/m2 unknown
22:24 46.4 °F 44.6 °F 30 in WNW 1.2 mph 2.5 mph 94% 0 in 0.00 W/m2 unknown
22:29 46.4 °F 44.6 °F 30 in WNW 1.9 mph 3.7 mph 94% 0 in 0.00 W/m2 unknown
22:34 46.4 °F 44.6 °F 30 in West 1.2 mph 3.1 mph 94% 0 in 0.00 W/m2 unknown
22:39 46.4 °F 44.6 °F 30 in SW 2.5 mph 3.7 mph 94% 0 in 0.00 W/m2 unknown
22:44 46.4 °F 44.6 °F 30 in South 3.7 mph 3.7 mph 94% 0 in 0.00 W/m2 unknown
22:49 46.4 °F 44.6 °F 30 in South 2.5 mph 3.7 mph 94% 0 in 0.00 W/m2 unknown
22:54 46.4 °F 44.6 °F 30 in West 3.1 mph 3.7 mph 94% 0 in 0.00 W/m2 unknown
22:59 46.4 °F 44.6 °F 30 in WNW 3.1 mph 3.7 mph 94% 0 in 0.00 W/m2 unknown
23:04 46.4 °F 44.6 °F 30 in NW 1.9 mph 3.7 mph 94% 0 in 0.00 W/m2 unknown
23:09 46.4 °F 44.6 °F 30 in WNW 1.9 mph 2.5 mph 94% 0 in 0.00 W/m2 unknown
23:14 46.4 °F 44.6 °F 30 in NW 2.5 mph 3.7 mph 94% 0 in 0.00 W/m2 unknown
23:19 46.4 °F 44.6 °F 30 in WNW 2.5 mph 3.7 mph 94% 0 in 0.00 W/m2 unknown
23:24 46.4 °F 44.6 °F 30 in West 1.9 mph 3.7 mph 94% 0 in 0.00 W/m2 unknown
23:29 46.4 °F 44.6 °F 30 in West 1.9 mph 3.7 mph 94% 0 in 0.00 W/m2 unknown
23:34 46.4 °F 44.6 °F 30 in West 1.2 mph 3.1 mph 94% 0 in 0.00 W/m2 unknown
23:39 46.4 °F 44.6 °F 30 in West 1.2 mph 2.5 mph 94% 0 in 0.00 W/m2 unknown
23:44 46.4 °F 44.6 °F 30 in West 0.6 mph 1.2 mph 94% 0 in 0.00 W/m2 unknown
23:49 46.4 °F 44.6 °F 30 in West 0.6 mph 1.2 mph 94% 0 in 0.00 W/m2 unknown
23:54 46.4 °F 44.6 °F 30 in Calm   1.2 mph 94% 0 in 0.00 W/m2 unknown
23:59 46.4 °F 44.6 °F 30 in West 0.6 mph 2.5 mph 94% 0 in 0.00 W/m2 unknown
Stazione Meteorologica MeteoMincio Rivalta s/M (MN)
Con i complimenti di Weather Underground - 2 mb



GLOSSARIO METEOROLOGICO
Indice UV
E' una misura semplice per l'intensità della radiazione UV del sole, che non riusciamo a percepire ma comunque possiamo misurare. Con più l'indice è elevato, con più intensa è la radiazione solare. L'indice UV ci permette di meglio stimare l'intensità del sole e di adottare le misure necessarie per proteggerci.
Share

Non seguire questo link o sarai bannato dal sito!